sensor_id;sensor_type;location;lat;lon;timestamp;pressure;altitude;pressure_sealevel;temperature;humidity
44926;BME280;30662;51.210;7.656;2023-01-24T00:00:37;148755.16;;;-0.28;100.00
44926;BME280;30662;51.210;7.656;2023-01-24T00:03:03;148753.91;;;-0.28;100.00
44926;BME280;30662;51.210;7.656;2023-01-24T00:05:29;148772.72;;;-0.20;100.00
44926;BME280;30662;51.210;7.656;2023-01-24T00:07:55;148760.16;;;-0.25;100.00
44926;BME280;30662;51.210;7.656;2023-01-24T00:10:21;148766.44;;;-0.23;100.00
44926;BME280;30662;51.210;7.656;2023-01-24T00:12:48;148772.72;;;-0.20;100.00
44926;BME280;30662;51.210;7.656;2023-01-24T00:15:14;148777.75;;;-0.18;100.00
44926;BME280;30662;51.210;7.656;2023-01-24T00:17:39;148782.75;;;-0.16;100.00
44926;BME280;30662;51.210;7.656;2023-01-24T00:20:06;148741.34;;;-0.33;100.00
44926;BME280;30662;51.210;7.656;2023-01-24T00:22:32;148750.09;;;-0.30;100.00
44926;BME280;30662;51.210;7.656;2023-01-24T00:24:58;148768.94;;;-0.22;100.00
44926;BME280;30662;51.210;7.656;2023-01-24T00:27:23;148733.84;;;-0.36;100.00
44926;BME280;30662;51.210;7.656;2023-01-24T00:29:49;148751.34;;;-0.29;100.00
44926;BME280;30662;51.210;7.656;2023-01-24T00:32:15;148738.84;;;-0.34;100.00
44926;BME280;30662;51.210;7.656;2023-01-24T00:34:41;148727.53;;;-0.39;100.00
44926;BME280;30662;51.210;7.656;2023-01-24T00:37:07;148735.09;;;-0.36;100.00
44926;BME280;30662;51.210;7.656;2023-01-24T00:39:33;148746.34;;;-0.31;100.00
44926;BME280;30662;51.210;7.656;2023-01-24T00:41:59;148768.94;;;-0.22;100.00
44926;BME280;30662;51.210;7.656;2023-01-24T00:44:24;148746.34;;;-0.31;100.00
44926;BME280;30662;51.210;7.656;2023-01-24T00:46:52;148760.16;;;-0.25;100.00
44926;BME280;30662;51.210;7.656;2023-01-24T00:49:18;148742.59;;;-0.33;100.00
44926;BME280;30662;51.210;7.656;2023-01-24T00:51:44;148708.69;;;-0.46;100.00
44926;BME280;30662;51.210;7.656;2023-01-24T00:54:10;148731.28;;;-0.37;100.00
44926;BME280;30662;51.210;7.656;2023-01-24T00:56:36;148714.97;;;-0.44;100.00
44926;BME280;30662;51.210;7.656;2023-01-24T00:59:02;148758.91;;;-0.26;100.00
44926;BME280;30662;51.210;7.656;2023-01-24T01:01:28;148753.91;;;-0.28;100.00
44926;BME280;30662;51.210;7.656;2023-01-24T01:03:55;148753.91;;;-0.28;100.00
44926;BME280;30662;51.210;7.656;2023-01-24T01:06:22;148740.09;;;-0.34;100.00
44926;BME280;30662;51.210;7.656;2023-01-24T01:08:48;148732.53;;;-0.37;100.00
44926;BME280;30662;51.210;7.656;2023-01-24T01:11:14;148691.13;;;-0.53;100.00
44926;BME280;30662;51.210;7.656;2023-01-24T01:13:39;148717.50;;;-0.43;100.00
44926;BME280;30662;51.210;7.656;2023-01-24T01:16:09;148722.50;;;-0.41;100.00
44926;BME280;30662;51.210;7.656;2023-01-24T01:18:35;148741.34;;;-0.33;100.00
44926;BME280;30662;51.210;7.656;2023-01-24T01:21:02;148738.84;;;-0.34;100.00
44926;BME280;30662;51.210;7.656;2023-01-24T01:23:28;148725.03;;;-0.40;100.00
44926;BME280;30662;51.210;7.656;2023-01-24T01:26:01;148742.59;;;-0.33;100.00
44926;BME280;30662;51.210;7.656;2023-01-24T01:28:28;148731.28;;;-0.37;100.00
44926;BME280;30662;51.210;7.656;2023-01-24T01:30:55;148683.63;;;-0.57;100.00
44926;BME280;30662;51.210;7.656;2023-01-24T01:33:22;148677.31;;;-0.59;100.00
44926;BME280;30662;51.210;7.656;2023-01-24T01:35:49;148686.13;;;-0.56;100.00
44926;BME280;30662;51.210;7.656;2023-01-24T01:38:16;148678.56;;;-0.59;100.00
44926;BME280;30662;51.210;7.656;2023-01-24T01:40:42;148694.88;;;-0.52;100.00
44926;BME280;30662;51.210;7.656;2023-01-24T01:43:19;148702.44;;;-0.49;100.00
44926;BME280;30662;51.210;7.656;2023-01-24T01:48:28;148712.44;;;-0.45;100.00
44926;BME280;30662;51.210;7.656;2023-01-24T01:51:04;148679.81;;;-0.58;100.00
44926;BME280;30662;51.210;7.656;2023-01-24T01:53:35;148634.66;;;-0.76;100.00
44926;BME280;30662;51.210;7.656;2023-01-24T01:56:09;148658.50;;;-0.67;100.00
44926;BME280;30662;51.210;7.656;2023-01-24T01:58:37;148649.72;;;-0.70;100.00
44926;BME280;30662;51.210;7.656;2023-01-24T02:01:04;148662.28;;;-0.65;100.00
44926;BME280;30662;51.210;7.656;2023-01-24T02:03:36;148657.25;;;-0.67;100.00
44926;BME280;30662;51.210;7.656;2023-01-24T02:06:08;148701.19;;;-0.49;100.00
44926;BME280;30662;51.210;7.656;2023-01-24T02:08:36;148674.81;;;-0.60;100.00
44926;BME280;30662;51.210;7.656;2023-01-24T02:11:02;148691.13;;;-0.53;100.00
44926;BME280;30662;51.210;7.656;2023-01-24T02:13:47;148713.72;;;-0.44;100.00
44926;BME280;30662;51.210;7.656;2023-01-24T02:16:15;148718.75;;;-0.42;100.00
44926;BME280;30662;51.210;7.656;2023-01-24T02:18:43;148746.34;;;-0.31;100.00
44926;BME280;30662;51.210;7.656;2023-01-24T02:21:12;148699.94;;;-0.50;100.00
44926;BME280;30662;51.210;7.656;2023-01-24T02:26:25;148684.88;;;-0.56;100.00
44926;BME280;30662;51.210;7.656;2023-01-24T02:29:06;148677.31;;;-0.59;100.00
44926;BME280;30662;51.210;7.656;2023-01-24T02:31:53;148693.63;;;-0.52;100.00
44926;BME280;30662;51.210;7.656;2023-01-24T02:34:20;148683.63;;;-0.57;100.00
44926;BME280;30662;51.210;7.656;2023-01-24T02:36:52;148694.88;;;-0.52;100.00
44926;BME280;30662;51.210;7.656;2023-01-24T02:39:24;148699.94;;;-0.50;100.00
44926;BME280;30662;51.210;7.656;2023-01-24T02:42:00;148691.13;;;-0.53;100.00
44926;BME280;30662;51.210;7.656;2023-01-24T02:47:12;148694.88;;;-0.52;100.00
44926;BME280;30662;51.210;7.656;2023-01-24T02:49:37;148678.56;;;-0.59;100.00
44926;BME280;30662;51.210;7.656;2023-01-24T02:52:03;148678.56;;;-0.59;100.00
44926;BME280;30662;51.210;7.656;2023-01-24T02:54:48;148701.19;;;-0.49;100.00
44926;BME280;30662;51.210;7.656;2023-01-24T02:57:14;148671.06;;;-0.62;100.00
44926;BME280;30662;51.210;7.656;2023-01-24T02:59:58;148663.53;;;-0.65;100.00
44926;BME280;30662;51.210;7.656;2023-01-24T03:02:24;148661.00;;;-0.66;100.00
44926;BME280;30662;51.210;7.656;2023-01-24T03:04:50;148650.97;;;-0.70;100.00
44926;BME280;30662;51.210;7.656;2023-01-24T03:07:16;148653.50;;;-0.69;100.00
44926;BME280;30662;51.210;7.656;2023-01-24T03:09:42;148649.72;;;-0.70;100.00
44926;BME280;30662;51.210;7.656;2023-01-24T03:12:13;148629.66;;;-0.78;100.00
44926;BME280;30662;51.210;7.656;2023-01-24T03:14:58;148634.66;;;-0.76;100.00
44926;BME280;30662;51.210;7.656;2023-01-24T03:17:42;148615.84;;;-0.84;100.00
44926;BME280;30662;51.210;7.656;2023-01-24T03:20:27;148618.34;;;-0.83;100.00
44926;BME280;30662;51.210;7.656;2023-01-24T03:23:12;148638.41;;;-0.75;100.00
44926;BME280;30662;51.210;7.656;2023-01-24T03:25:57;148635.91;;;-0.76;100.00
44926;BME280;30662;51.210;7.656;2023-01-24T03:28:42;148642.19;;;-0.73;100.00
44926;BME280;30662;51.210;7.656;2023-01-24T03:31:27;148657.25;;;-0.67;100.00
44926;BME280;30662;51.210;7.656;2023-01-24T03:34:12;148645.97;;;-0.72;100.00
44926;BME280;30662;51.210;7.656;2023-01-24T03:37:00;148642.19;;;-0.73;100.00
44926;BME280;30662;51.210;7.656;2023-01-24T03:39:26;148633.41;;;-0.77;100.00
44926;BME280;30662;51.210;7.656;2023-01-24T03:42:11;148638.41;;;-0.75;100.00
44926;BME280;30662;51.210;7.656;2023-01-24T03:44:37;148618.34;;;-0.83;100.00
44926;BME280;30662;51.210;7.656;2023-01-24T03:47:03;148609.59;;;-0.87;100.00
44926;BME280;30662;51.210;7.656;2023-01-24T03:49:29;148595.78;;;-0.92;100.00
44926;BME280;30662;51.210;7.656;2023-01-24T03:52:13;148589.47;;;-0.95;100.00
44926;BME280;30662;51.210;7.656;2023-01-24T03:54:55;148608.28;;;-0.87;100.00
44926;BME280;30662;51.210;7.656;2023-01-24T03:57:22;148588.22;;;-0.95;100.00
44926;BME280;30662;51.210;7.656;2023-01-24T03:59:48;148589.47;;;-0.95;100.00
44926;BME280;30662;51.210;7.656;2023-01-24T04:02:15;148602.03;;;-0.90;100.00
44926;BME280;30662;51.210;7.656;2023-01-24T04:04:40;148571.91;;;-1.02;100.00
44926;BME280;30662;51.210;7.656;2023-01-24T04:07:26;148538.09;;;-1.16;100.00
44926;BME280;30662;51.210;7.656;2023-01-24T04:09:53;148535.53;;;-1.17;100.00
44926;BME280;30662;51.210;7.656;2023-01-24T04:12:19;148544.34;;;-1.13;100.00
44926;BME280;30662;51.210;7.656;2023-01-24T04:14:45;148551.84;;;-1.10;100.00
44926;BME280;30662;51.210;7.656;2023-01-24T04:17:11;148559.41;;;-1.07;100.00
44926;BME280;30662;51.210;7.656;2023-01-24T04:19:37;148555.66;;;-1.08;100.00
44926;BME280;30662;51.210;7.656;2023-01-24T04:22:03;148549.34;;;-1.11;100.00
44926;BME280;30662;51.210;7.656;2023-01-24T04:24:29;148561.91;;;-1.06;100.00
44926;BME280;30662;51.210;7.656;2023-01-24T04:26:55;148548.09;;;-1.12;100.00
44926;BME280;30662;51.210;7.656;2023-01-24T04:29:21;148511.72;;;-1.26;100.00
44926;BME280;30662;51.210;7.656;2023-01-24T04:31:46;148516.72;;;-1.24;100.00
44926;BME280;30662;51.210;7.656;2023-01-24T04:34:12;148506.72;;;-1.28;100.00
44926;BME280;30662;51.210;7.656;2023-01-24T04:36:38;148516.72;;;-1.24;100.00
44926;BME280;30662;51.210;7.656;2023-01-24T04:39:04;148501.72;;;-1.30;100.00
44926;BME280;30662;51.210;7.656;2023-01-24T04:41:30;148476.59;;;-1.41;100.00
44926;BME280;30662;51.210;7.656;2023-01-24T04:43:56;148492.91;;;-1.34;100.00
44926;BME280;30662;51.210;7.656;2023-01-24T04:46:21;148475.34;;;-1.41;100.00
44926;BME280;30662;51.210;7.656;2023-01-24T04:48:47;148490.41;;;-1.35;100.00
44926;BME280;30662;51.210;7.656;2023-01-24T04:51:13;148466.59;;;-1.45;100.00
44926;BME280;30662;51.210;7.656;2023-01-24T04:53:39;148482.84;;;-1.38;100.00
44926;BME280;30662;51.210;7.656;2023-01-24T04:56:06;148495.41;;;-1.33;100.00
44926;BME280;30662;51.210;7.656;2023-01-24T04:58:33;148489.16;;;-1.35;100.00
44926;BME280;30662;51.210;7.656;2023-01-24T05:01:00;148472.84;;;-1.42;100.00
44926;BME280;30662;51.210;7.656;2023-01-24T05:03:28;148471.59;;;-1.43;100.00
44926;BME280;30662;51.210;7.656;2023-01-24T05:05:55;148467.84;;;-1.44;100.00
44926;BME280;30662;51.210;7.656;2023-01-24T05:08:22;148428.94;;;-1.60;100.00
44926;BME280;30662;51.210;7.656;2023-01-24T05:10:48;148433.97;;;-1.58;100.00
44926;BME280;30662;51.210;7.656;2023-01-24T05:13:14;148440.25;;;-1.55;100.00
44926;BME280;30662;51.210;7.656;2023-01-24T05:15:50;148455.28;;;-1.49;100.00
44926;BME280;30662;51.210;7.656;2023-01-24T05:18:16;148426.44;;;-1.61;100.00
44926;BME280;30662;51.210;7.656;2023-01-24T05:20:43;148441.50;;;-1.55;100.00
44926;BME280;30662;51.210;7.656;2023-01-24T05:23:09;148446.50;;;-1.53;100.00
44926;BME280;30662;51.210;7.656;2023-01-24T05:25:35;148435.22;;;-1.57;100.00
44926;BME280;30662;51.210;7.656;2023-01-24T05:28:01;148422.69;;;-1.62;100.00
44926;BME280;30662;51.210;7.656;2023-01-24T05:30:27;148406.38;;;-1.69;100.00
44926;BME280;30662;51.210;7.656;2023-01-24T05:32:56;148408.88;;;-1.68;100.00
44926;BME280;30662;51.210;7.656;2023-01-24T05:35:22;148417.69;;;-1.64;100.00
44926;BME280;30662;51.210;7.656;2023-01-24T05:37:49;148455.28;;;-1.49;100.00
44926;BME280;30662;51.210;7.656;2023-01-24T05:40:17;148452.78;;;-1.50;100.00
44926;BME280;30662;51.210;7.656;2023-01-24T05:42:43;148441.50;;;-1.55;100.00
44926;BME280;30662;51.210;7.656;2023-01-24T05:45:09;148423.94;;;-1.62;100.00
44926;BME280;30662;51.210;7.656;2023-01-24T05:47:36;148411.38;;;-1.67;100.00
44926;BME280;30662;51.210;7.656;2023-01-24T05:50:02;148405.13;;;-1.70;100.00
44926;BME280;30662;51.210;7.656;2023-01-24T05:52:28;148412.69;;;-1.67;100.00
44926;BME280;30662;51.210;7.656;2023-01-24T05:54:54;148432.72;;;-1.58;100.00
44926;BME280;30662;51.210;7.656;2023-01-24T05:57:20;148433.97;;;-1.58;100.00
44926;BME280;30662;51.210;7.656;2023-01-24T05:59:46;148397.63;;;-1.73;100.00
44926;BME280;30662;51.210;7.656;2023-01-24T06:02:11;148378.81;;;-1.80;100.00
44926;BME280;30662;51.210;7.656;2023-01-24T06:04:38;148395.13;;;-1.74;100.00
44926;BME280;30662;51.210;7.656;2023-01-24T06:07:03;148382.56;;;-1.79;100.00
44926;BME280;30662;51.210;7.656;2023-01-24T06:09:29;148398.88;;;-1.72;100.00
44926;BME280;30662;51.210;7.656;2023-01-24T06:11:55;148393.81;;;-1.74;100.00
44926;BME280;30662;51.210;7.656;2023-01-24T06:14:21;148387.56;;;-1.77;100.00
44926;BME280;30662;51.210;7.656;2023-01-24T06:16:47;148382.56;;;-1.79;100.00
44926;BME280;30662;51.210;7.656;2023-01-24T06:19:14;148401.38;;;-1.71;100.00
44926;BME280;30662;51.210;7.656;2023-01-24T06:24:31;148426.44;;;-1.61;100.00
44926;BME280;30662;51.210;7.656;2023-01-24T06:26:57;148428.94;;;-1.60;100.00
44926;BME280;30662;51.210;7.656;2023-01-24T06:29:23;148442.72;;;-1.54;100.00
44926;BME280;30662;51.210;7.656;2023-01-24T06:37:44;148415.19;;;-1.65;100.00
44926;BME280;30662;51.210;7.656;2023-01-24T06:40:12;148431.47;;;-1.59;100.00
44926;BME280;30662;51.210;7.656;2023-01-24T06:42:38;148439.00;;;-1.56;100.00
44926;BME280;30662;51.210;7.656;2023-01-24T06:45:05;148439.00;;;-1.56;100.00
44926;BME280;30662;51.210;7.656;2023-01-24T06:47:32;148431.47;;;-1.59;100.00
44926;BME280;30662;51.210;7.656;2023-01-24T06:49:58;148425.19;;;-1.61;100.00
44926;BME280;30662;51.210;7.656;2023-01-24T06:52:24;148421.44;;;-1.63;100.00
44926;BME280;30662;51.210;7.656;2023-01-24T06:54:50;148426.44;;;-1.61;100.00
44926;BME280;30662;51.210;7.656;2023-01-24T06:57:15;148423.94;;;-1.62;100.00
44926;BME280;30662;51.210;7.656;2023-01-24T06:59:41;148439.00;;;-1.56;100.00
44926;BME280;30662;51.210;7.656;2023-01-24T07:02:09;148437.72;;;-1.56;100.00
44926;BME280;30662;51.210;7.656;2023-01-24T07:04:35;148432.72;;;-1.58;100.00
44926;BME280;30662;51.210;7.656;2023-01-24T07:07:03;148423.94;;;-1.62;100.00
44926;BME280;30662;51.210;7.656;2023-01-24T07:09:28;148420.19;;;-1.63;100.00
44926;BME280;30662;51.210;7.656;2023-01-24T07:11:54;148401.38;;;-1.71;100.00
44926;BME280;30662;51.210;7.656;2023-01-24T07:14:23;148400.13;;;-1.72;100.00
44926;BME280;30662;51.210;7.656;2023-01-24T07:16:49;148435.22;;;-1.57;100.00
44926;BME280;30662;51.210;7.656;2023-01-24T07:19:18;148446.50;;;-1.53;100.00
44926;BME280;30662;51.210;7.656;2023-01-24T07:21:45;148455.28;;;-1.49;100.00
44926;BME280;30662;51.210;7.656;2023-01-24T07:24:14;148465.28;;;-1.45;100.00
44926;BME280;30662;51.210;7.656;2023-01-24T07:26:41;148455.28;;;-1.49;100.00
44926;BME280;30662;51.210;7.656;2023-01-24T07:29:07;148484.16;;;-1.37;100.00
44926;BME280;30662;51.210;7.656;2023-01-24T07:31:33;148501.72;;;-1.30;100.00
44926;BME280;30662;51.210;7.656;2023-01-24T07:33:59;148510.47;;;-1.27;100.00
44926;BME280;30662;51.210;7.656;2023-01-24T07:36:24;148492.91;;;-1.34;100.00
44926;BME280;30662;51.210;7.656;2023-01-24T07:38:54;148477.84;;;-1.40;100.00
44926;BME280;30662;51.210;7.656;2023-01-24T07:41:20;148489.16;;;-1.35;100.00
44926;BME280;30662;51.210;7.656;2023-01-24T07:43:46;148487.91;;;-1.36;100.00
44926;BME280;30662;51.210;7.656;2023-01-24T07:46:12;148486.66;;;-1.36;100.00
44926;BME280;30662;51.210;7.656;2023-01-24T07:48:38;148477.84;;;-1.40;100.00
44926;BME280;30662;51.210;7.656;2023-01-24T07:51:04;148502.97;;;-1.30;100.00
44926;BME280;30662;51.210;7.656;2023-01-24T07:53:30;148521.78;;;-1.22;100.00
44926;BME280;30662;51.210;7.656;2023-01-24T07:56:00;148525.53;;;-1.21;100.00
44926;BME280;30662;51.210;7.656;2023-01-24T07:58:28;148534.28;;;-1.17;100.00
44926;BME280;30662;51.210;7.656;2023-01-24T08:00:55;148570.66;;;-1.02;100.00
44926;BME280;30662;51.210;7.656;2023-01-24T08:03:21;148561.91;;;-1.06;100.00
44926;BME280;30662;51.210;7.656;2023-01-24T08:05:47;148583.22;;;-0.97;100.00
44926;BME280;30662;51.210;7.656;2023-01-24T08:08:12;148571.91;;;-1.02;100.00
44926;BME280;30662;51.210;7.656;2023-01-24T08:10:38;148573.22;;;-1.01;100.00
44926;BME280;30662;51.210;7.656;2023-01-24T08:13:04;148555.66;;;-1.08;100.00
44926;BME280;30662;51.210;7.656;2023-01-24T08:15:30;148554.34;;;-1.09;100.00
44926;BME280;30662;51.210;7.656;2023-01-24T08:17:56;148585.72;;;-0.96;100.00
44926;BME280;30662;51.210;7.656;2023-01-24T08:20:22;148619.59;;;-0.82;100.00
44926;BME280;30662;51.210;7.656;2023-01-24T08:22:53;148610.84;;;-0.86;100.00
44926;BME280;30662;51.210;7.656;2023-01-24T08:25:26;148586.97;;;-0.96;100.00
44926;BME280;30662;51.210;7.656;2023-01-24T08:27:53;148565.66;;;-1.04;100.00
44926;BME280;30662;51.210;7.656;2023-01-24T08:30:19;148585.72;;;-0.96;100.00
44926;BME280;30662;51.210;7.656;2023-01-24T08:32:45;148598.28;;;-0.91;100.00
44926;BME280;30662;51.210;7.656;2023-01-24T08:35:11;148595.78;;;-0.92;100.00
44926;BME280;30662;51.210;7.656;2023-01-24T08:37:37;148614.59;;;-0.85;100.00
44926;BME280;30662;51.210;7.656;2023-01-24T08:40:03;148610.84;;;-0.86;100.00
44926;BME280;30662;51.210;7.656;2023-01-24T08:42:29;148600.78;;;-0.90;100.00
44926;BME280;30662;51.210;7.656;2023-01-24T08:44:55;148588.22;;;-0.95;100.00
44926;BME280;30662;51.210;7.656;2023-01-24T08:47:21;148632.16;;;-0.77;100.00
44926;BME280;30662;51.210;7.656;2023-01-24T08:49:47;148617.09;;;-0.84;100.00
44926;BME280;30662;51.210;7.656;2023-01-24T08:52:12;148625.84;;;-0.80;100.00
44926;BME280;30662;51.210;7.656;2023-01-24T08:54:38;148654.72;;;-0.68;100.00
44926;BME280;30662;51.210;7.656;2023-01-24T08:57:05;148614.59;;;-0.85;100.00
44926;BME280;30662;51.210;7.656;2023-01-24T08:59:33;148598.28;;;-0.91;100.00
44926;BME280;30662;51.210;7.656;2023-01-24T09:01:59;148617.09;;;-0.84;100.00
44926;BME280;30662;51.210;7.656;2023-01-24T09:04:25;148623.34;;;-0.81;100.00
44926;BME280;30662;51.210;7.656;2023-01-24T09:06:52;148624.59;;;-0.80;100.00
44926;BME280;30662;51.210;7.656;2023-01-24T09:09:18;148627.16;;;-0.79;100.00
44926;BME280;30662;51.210;7.656;2023-01-24T09:11:44;148613.34;;;-0.85;100.00
44926;BME280;30662;51.210;7.656;2023-01-24T09:14:10;148618.34;;;-0.83;100.00
44926;BME280;30662;51.210;7.656;2023-01-24T09:16:36;148612.09;;;-0.86;100.00
44926;BME280;30662;51.210;7.656;2023-01-24T09:19:02;148640.94;;;-0.74;100.00
44926;BME280;30662;51.210;7.656;2023-01-24T09:21:28;148658.50;;;-0.67;100.00
44926;BME280;30662;51.210;7.656;2023-01-24T09:23:54;148679.81;;;-0.58;100.00
44926;BME280;30662;51.210;7.656;2023-01-24T09:26:21;148730.03;;;-0.38;100.00
44926;BME280;30662;51.210;7.656;2023-01-24T09:28:47;148698.69;;;-0.50;100.00
44926;BME280;30662;51.210;7.656;2023-01-24T09:31:13;148716.25;;;-0.43;100.00
44926;BME280;30662;51.210;7.656;2023-01-24T09:33:39;148740.09;;;-0.34;100.00
44926;BME280;30662;51.210;7.656;2023-01-24T09:36:23;148757.66;;;-0.26;100.00
44926;BME280;30662;51.210;7.656;2023-01-24T09:38:49;148768.94;;;-0.22;100.00
44926;BME280;30662;51.210;7.656;2023-01-24T09:41:47;148767.69;;;-0.22;100.00
44926;BME280;30662;51.210;7.656;2023-01-24T09:47:25;148791.56;;;-0.13;100.00
44926;BME280;30662;51.210;7.656;2023-01-24T09:49:54;148777.75;;;-0.18;100.00
44926;BME280;30662;51.210;7.656;2023-01-24T09:52:28;148763.94;;;-0.24;100.00
44926;BME280;30662;51.210;7.656;2023-01-24T09:55:00;148768.94;;;-0.22;100.00
44926;BME280;30662;51.210;7.656;2023-01-24T09:57:48;148747.59;;;-0.31;100.00
44926;BME280;30662;51.210;7.656;2023-01-24T10:00:17;148777.75;;;-0.18;100.00
44926;BME280;30662;51.210;7.656;2023-01-24T10:02:45;148757.66;;;-0.26;100.00
44926;BME280;30662;51.210;7.656;2023-01-24T10:05:15;148756.41;;;-0.27;100.00
44926;BME280;30662;51.210;7.656;2023-01-24T10:07:48;148775.25;;;-0.19;100.00
44926;BME280;30662;51.210;7.656;2023-01-24T10:10:40;148752.66;;;-0.29;100.00
44926;BME280;30662;51.210;7.656;2023-01-24T10:13:44;148758.91;;;-0.26;100.00
44926;BME280;30662;51.210;7.656;2023-01-24T10:19:26;148767.69;;;-0.22;100.00
44926;BME280;30662;51.210;7.656;2023-01-24T10:24:35;148757.66;;;-0.26;100.00
44926;BME280;30662;51.210;7.656;2023-01-24T10:27:16;148763.94;;;-0.24;100.00
44926;BME280;30662;51.210;7.656;2023-01-24T10:29:47;148751.34;;;-0.29;100.00
44926;BME280;30662;51.210;7.656;2023-01-24T10:32:34;148751.34;;;-0.29;100.00
44926;BME280;30662;51.210;7.656;2023-01-24T10:35:17;148775.25;;;-0.19;100.00
44926;BME280;30662;51.210;7.656;2023-01-24T10:37:48;148829.22;;;0.03;100.00
44926;BME280;30662;51.210;7.656;2023-01-24T10:40:21;148824.22;;;0.01;100.00
44926;BME280;30662;51.210;7.656;2023-01-24T10:42:47;148810.41;;;-0.05;100.00
44926;BME280;30662;51.210;7.656;2023-01-24T10:48:06;148845.56;;;0.09;100.00
44926;BME280;30662;51.210;7.656;2023-01-24T10:50:44;148879.47;;;0.23;100.00
44926;BME280;30662;51.210;7.656;2023-01-24T10:53:16;148848.06;;;0.10;100.00
44926;BME280;30662;51.210;7.656;2023-01-24T10:56:01;148859.38;;;0.15;100.00
44926;BME280;30662;51.210;7.656;2023-01-24T10:58:42;148888.22;;;0.26;100.00
44926;BME280;30662;51.210;7.656;2023-01-24T11:01:16;148883.22;;;0.24;100.00
44926;BME280;30662;51.210;7.656;2023-01-24T11:03:48;148849.31;;;0.11;100.00
44926;BME280;30662;51.210;7.656;2023-01-24T11:08:55;148848.06;;;0.10;100.00
44926;BME280;30662;51.210;7.656;2023-01-24T11:11:30;148868.13;;;0.18;100.00
44926;BME280;30662;51.210;7.656;2023-01-24T11:13:59;148855.56;;;0.13;100.00
44926;BME280;30662;51.210;7.656;2023-01-24T11:16:41;148884.47;;;0.25;100.00
44926;BME280;30662;51.210;7.656;2023-01-24T11:19:33;148861.88;;;0.16;100.00
44926;BME280;30662;51.210;7.656;2023-01-24T11:22:23;148860.63;;;0.15;100.00
44926;BME280;30662;51.210;7.656;2023-01-24T11:24:47;148905.81;;;0.34;100.00
44926;BME280;30662;51.210;7.656;2023-01-24T11:27:15;148878.22;;;0.22;100.00
44926;BME280;30662;51.210;7.656;2023-01-24T11:29:42;148918.38;;;0.39;100.00
44926;BME280;30662;51.210;7.656;2023-01-24T11:35:12;148889.47;;;0.27;100.00
44926;BME280;30662;51.210;7.656;2023-01-24T11:40:30;148864.38;;;0.17;100.00
44926;BME280;30662;51.210;7.656;2023-01-24T11:48:12;148874.41;;;0.21;100.00
44926;BME280;30662;51.210;7.656;2023-01-24T11:58:35;148888.22;;;0.26;100.00
44926;BME280;30662;51.210;7.656;2023-01-24T12:07:14;148856.81;;;0.14;100.00
44926;BME280;30662;51.210;7.656;2023-01-24T12:09:55;148875.66;;;0.21;100.00
44926;BME280;30662;51.210;7.656;2023-01-24T12:12:37;148874.41;;;0.21;100.00
44926;BME280;30662;51.210;7.656;2023-01-24T12:15:34;148889.47;;;0.27;100.00
44926;BME280;30662;51.210;7.656;2023-01-24T12:20:56;148846.81;;;0.10;100.00
44926;BME280;30662;51.210;7.656;2023-01-24T12:23:41;148876.97;;;0.22;100.00
44926;BME280;30662;51.210;7.656;2023-01-24T12:26:30;148829.22;;;0.03;100.00
44926;BME280;30662;51.210;7.656;2023-01-24T12:29:08;148801.59;;;-0.09;100.00
44926;BME280;30662;51.210;7.656;2023-01-24T12:31:46;148820.41;;;-0.01;100.00
44926;BME280;30662;51.210;7.656;2023-01-24T12:43:06;148870.66;;;0.19;100.00
44926;BME280;30662;51.210;7.656;2023-01-24T12:45:44;148876.97;;;0.22;100.00
44926;BME280;30662;51.210;7.656;2023-01-24T12:48:42;148919.63;;;0.39;100.00
44926;BME280;30662;51.210;7.656;2023-01-24T12:51:29;148952.31;;;0.52;100.00
44926;BME280;30662;51.210;7.656;2023-01-24T12:54:09;148958.56;;;0.55;100.00
44926;BME280;30662;51.210;7.656;2023-01-24T12:56:48;148933.47;;;0.45;100.00
44926;BME280;30662;51.210;7.656;2023-01-24T12:59:22;148918.38;;;0.39;100.00
44926;BME280;30662;51.210;7.656;2023-01-24T13:04:41;148864.38;;;0.17;100.00
44926;BME280;30662;51.210;7.656;2023-01-24T13:12:46;148801.59;;;-0.09;100.00
44926;BME280;30662;51.210;7.656;2023-01-24T13:15:23;148760.16;;;-0.25;100.00
44926;BME280;30662;51.210;7.656;2023-01-24T13:23:36;148868.13;;;0.18;100.00
44926;BME280;30662;51.210;7.656;2023-01-24T13:28:56;148881.97;;;0.24;100.00
44926;BME280;30662;51.210;7.656;2023-01-24T13:31:33;148871.91;;;0.20;100.00
44926;BME280;30662;51.210;7.656;2023-01-24T13:34:09;148893.25;;;0.28;100.00
44926;BME280;30662;51.210;7.656;2023-01-24T13:36:38;148881.97;;;0.24;100.00
44926;BME280;30662;51.210;7.656;2023-01-24T13:39:05;148927.16;;;0.42;100.00
44926;BME280;30662;51.210;7.656;2023-01-24T13:41:35;148895.78;;;0.30;100.00
44926;BME280;30662;51.210;7.656;2023-01-24T13:49:18;148869.41;;;0.19;100.00
44926;BME280;30662;51.210;7.656;2023-01-24T13:51:46;148876.97;;;0.22;100.00
44926;BME280;30662;51.210;7.656;2023-01-24T13:54:16;148895.78;;;0.30;100.00
44926;BME280;30662;51.210;7.656;2023-01-24T14:00:19;148903.31;;;0.33;100.00
44926;BME280;30662;51.210;7.656;2023-01-24T14:05:38;148912.06;;;0.36;100.00
44926;BME280;30662;51.210;7.656;2023-01-24T14:16:11;148893.25;;;0.28;100.00
44926;BME280;30662;51.210;7.656;2023-01-24T14:18:48;148875.66;;;0.21;100.00
44926;BME280;30662;51.210;7.656;2023-01-24T14:21:17;148879.47;;;0.23;100.00
44926;BME280;30662;51.210;7.656;2023-01-24T14:23:48;148868.13;;;0.18;100.00
44926;BME280;30662;51.210;7.656;2023-01-24T14:26:18;148864.38;;;0.17;100.00
44926;BME280;30662;51.210;7.656;2023-01-24T14:28:49;148839.25;;;0.07;100.00
44926;BME280;30662;51.210;7.656;2023-01-24T14:31:22;148848.06;;;0.10;100.00
44926;BME280;30662;51.210;7.656;2023-01-24T14:37:11;148827.97;;;0.02;100.00
44926;BME280;30662;51.210;7.656;2023-01-24T14:39:37;148829.22;;;0.03;100.00
44926;BME280;30662;51.210;7.656;2023-01-24T14:42:06;148841.78;;;0.08;100.00
44926;BME280;30662;51.210;7.656;2023-01-24T14:44:37;148822.97;;;0.00;100.00